createdAt,value
2018-07-05T04:50:24.325Z,97081.77
2018-07-05T04:51:40.850Z,97083.55
2018-07-05T04:52:59.073Z,97072.63
2018-07-05T04:54:15.849Z,97077.15
2018-07-05T04:55:32.984Z,97073.10
2018-07-05T04:56:49.934Z,97068.91
2018-07-05T04:58:06.608Z,97068.30
2018-07-05T04:59:23.119Z,97072.08
2018-07-05T05:00:40.561Z,97076.56
2018-07-05T05:01:57.162Z,97071.60
2018-07-05T05:03:13.862Z,97064.06
2018-07-05T05:04:30.698Z,97063.20
2018-07-05T05:05:48.736Z,97064.28
2018-07-05T05:07:05.314Z,97057.42
2018-07-05T05:08:21.938Z,97058.97
2018-07-05T05:09:38.433Z,97062.75
2018-07-05T05:10:55.051Z,97061.09
2018-07-05T05:12:12.192Z,97066.95
2018-07-05T05:13:28.764Z,97064.38
2018-07-05T05:14:45.292Z,97059.02
2018-07-05T05:16:01.894Z,97057.99
2018-07-05T05:17:18.664Z,97066.46
2018-07-05T05:18:35.596Z,97063.75
2018-07-05T05:19:52.164Z,97065.83
2018-07-05T05:21:08.657Z,97065.70
2018-07-05T05:22:25.438Z,97062.64
2018-07-05T05:23:42.770Z,97068.30
2018-07-05T05:25:00.064Z,97070.16
2018-07-05T05:26:18.550Z,97067.98
2018-07-05T05:27:35.642Z,97068.88
2018-07-05T05:28:54.008Z,97075.94
2018-07-05T05:30:10.348Z,97075.06
2018-07-05T05:31:26.832Z,97074.83
2018-07-05T05:32:45.008Z,97078.67
2018-07-05T05:34:03.222Z,97076.03
2018-07-05T05:35:20.608Z,97083.67
2018-07-05T05:36:38.362Z,97085.11
2018-07-05T05:37:55.012Z,97094.28
2018-07-05T05:39:12.476Z,97093.19
2018-07-05T05:40:29.020Z,97089.73
2018-07-05T05:41:45.678Z,97090.76
2018-07-05T05:43:02.016Z,97090.08
2018-07-05T05:44:18.768Z,97091.25
2018-07-05T05:45:35.088Z,97096.05
2018-07-05T05:46:52.324Z,97096.65
2018-07-05T05:48:08.991Z,97089.95
2018-07-05T05:49:25.618Z,97091.77
2018-07-05T05:50:42.290Z,97092.91
2018-07-05T05:51:58.857Z,97084.22
2018-07-05T05:53:16.334Z,97089.23
2018-07-05T05:54:34.381Z,97088.06
2018-07-05T05:55:51.471Z,97084.38
2018-07-05T05:57:09.538Z,97080.91
2018-07-05T05:58:26.208Z,97084.59
2018-07-05T05:59:42.994Z,97077.84
2018-07-05T06:00:59.570Z,97074.50
2018-07-05T06:02:16.150Z,97078.02
2018-07-05T06:03:32.795Z,97075.81
2018-07-05T06:04:49.363Z,97074.64
2018-07-05T06:06:06.332Z,97076.68
2018-07-05T06:07:22.822Z,97075.41
2018-07-05T06:08:40.048Z,97074.36
2018-07-05T06:09:57.788Z,97067.19
2018-07-05T06:11:14.286Z,97074.23
2018-07-05T06:12:31.076Z,97072.93
2018-07-05T06:13:49.490Z,97073.54
2018-07-05T06:15:05.915Z,97072.38
2018-07-05T06:16:22.616Z,97075.89
2018-07-05T06:17:40.178Z,97067.88
2018-07-05T06:18:56.728Z,97072.39
2018-07-05T06:20:14.037Z,97069.23
2018-07-05T06:21:31.042Z,97066.69
2018-07-05T06:22:47.676Z,97062.07
2018-07-05T06:24:04.604Z,97061.69
2018-07-05T06:25:21.257Z,97064.71
2018-07-05T06:26:38.508Z,97061.63
2018-07-05T06:27:55.222Z,97061.05
2018-07-05T06:29:12.038Z,97067.99
2018-07-05T06:30:30.440Z,97065.83
2018-07-05T06:31:46.942Z,97065.59
2018-07-05T06:33:04.998Z,97065.09
2018-07-05T06:34:21.495Z,97068.67
2018-07-05T06:35:38.039Z,97073.82
2018-07-05T06:36:54.526Z,97074.02
2018-07-05T06:38:11.791Z,97068.17
2018-07-05T06:39:28.548Z,97065.41
2018-07-05T06:40:45.410Z,97067.79
2018-07-05T06:42:04.239Z,97063.48
2018-07-05T06:43:20.846Z,97061.53
2018-07-05T06:44:38.624Z,97062.62
2018-07-05T06:45:55.993Z,97070.39
2018-07-05T06:47:12.688Z,97069.33
2018-07-05T06:48:30.810Z,97066.53
2018-07-05T06:49:48.311Z,97062.87
2018-07-05T06:51:05.703Z,97058.27
2018-07-05T06:52:23.133Z,97058.63
2018-07-05T06:53:40.634Z,97057.60
2018-07-05T06:54:57.238Z,97053.30
2018-07-05T06:56:13.678Z,97055.64
2018-07-05T06:57:30.120Z,97052.08
2018-07-05T06:58:47.131Z,97049.77
2018-07-05T07:00:05.910Z,97056.53
2018-07-05T07:01:22.568Z,97049.03
2018-07-05T07:02:39.804Z,97049.81
2018-07-05T07:03:59.782Z,97045.77
2018-07-05T07:05:17.084Z,97048.44
2018-07-05T07:06:33.735Z,97045.30
2018-07-05T07:07:50.271Z,97040.83
2018-07-05T07:09:10.884Z,97036.97
2018-07-05T07:10:29.812Z,97037.55
2018-07-05T07:11:46.577Z,97038.06
2018-07-05T07:13:03.724Z,97029.69
2018-07-05T07:14:21.162Z,97030.56
2018-07-05T07:15:37.820Z,97032.84
2018-07-05T07:16:55.973Z,97029.00
2018-07-05T07:18:14.821Z,97030.67
2018-07-05T07:19:33.372Z,97030.55
2018-07-05T07:20:50.144Z,97038.00
2018-07-05T07:22:06.888Z,97025.97
2018-07-05T07:23:24.255Z,97021.83
2018-07-05T07:24:42.338Z,97028.22
2018-07-05T07:25:59.807Z,97028.63
2018-07-05T07:27:19.272Z,97021.52
2018-07-05T07:28:36.788Z,97029.09
2018-07-05T07:29:56.760Z,97033.41
2018-07-05T07:31:13.571Z,97031.83
2018-07-05T07:32:30.083Z,97030.39
2018-07-05T07:33:46.986Z,97034.16
2018-07-05T07:35:05.019Z,97035.70
2018-07-05T07:36:21.589Z,97030.14
2018-07-05T07:37:43.922Z,97022.95
2018-07-05T07:39:04.335Z,97028.03
2018-07-05T07:40:22.754Z,97030.52
2018-07-05T07:41:43.728Z,97031.65
2018-07-05T07:42:50.886Z,97030.22
2018-07-05T07:43:55.278Z,97033.11
2018-07-05T07:45:01.110Z,97032.00
2018-07-05T07:46:07.409Z,97026.13
2018-07-05T07:47:11.749Z,97032.89
2018-07-05T07:48:17.471Z,97033.03
2018-07-05T07:49:24.320Z,97029.36
2018-07-05T07:50:31.611Z,97030.06
2018-07-05T07:51:37.506Z,97029.37
2018-07-05T07:52:41.806Z,97030.46
2018-07-05T07:53:46.370Z,97031.22
2018-07-05T07:54:50.436Z,97031.02
2018-07-05T07:55:56.180Z,97031.41
2018-07-05T07:57:00.372Z,97029.95
2018-07-05T07:58:05.952Z,97030.05
2018-07-05T07:59:10.132Z,97030.95
2018-07-05T08:00:14.460Z,97031.98
2018-07-05T08:01:18.616Z,97028.83
2018-07-05T08:02:24.556Z,97029.94
2018-07-05T08:03:28.828Z,97028.16
2018-07-05T08:04:33.024Z,97035.80
2018-07-05T08:05:41.876Z,97031.55
2018-07-05T08:06:49.333Z,97028.45
2018-07-05T08:07:56.534Z,97022.41
2018-07-05T08:09:02.046Z,97022.77
2018-07-05T08:10:06.264Z,97023.81
2018-07-05T08:11:11.114Z,97022.53
2018-07-05T08:12:15.302Z,97026.52
2018-07-05T08:13:22.756Z,97026.41
2018-07-05T08:14:26.944Z,97025.03
2018-07-05T08:15:32.716Z,97034.61
2018-07-05T08:16:40.773Z,97028.23
2018-07-05T08:17:45.704Z,97026.05
2018-07-05T08:18:52.988Z,97026.04
2018-07-05T08:19:57.387Z,97022.27
2018-07-05T08:21:02.736Z,97024.29
2018-07-05T08:22:06.883Z,97022.65
2018-07-05T08:23:11.028Z,97016.48
2018-07-05T08:24:15.236Z,97019.03
2018-07-05T08:25:21.692Z,97016.20
2018-07-05T08:26:25.884Z,97017.58
2018-07-05T08:27:30.914Z,97021.88
2018-07-05T08:28:38.118Z,97017.11
2018-07-05T08:29:42.386Z,97017.52
2018-07-05T08:30:47.038Z,97017.48
2018-07-05T08:31:53.148Z,97020.64
2018-07-05T08:32:58.434Z,97009.98
2018-07-05T08:34:02.581Z,97021.28
2018-07-05T08:35:09.542Z,97017.05
2018-07-05T08:36:14.066Z,97018.11
2018-07-05T08:37:18.267Z,97014.30
2018-07-05T08:38:24.453Z,97018.45
2018-07-05T08:39:29.252Z,97019.23
2018-07-05T08:40:33.459Z,97018.86
2018-07-05T08:41:37.826Z,97018.20
2018-07-05T08:42:43.574Z,97019.56
2018-07-05T08:43:48.338Z,97013.20
2018-07-05T08:44:52.571Z,97018.66
2018-07-05T08:45:58.448Z,97018.17
2018-07-05T08:47:04.961Z,97015.61
2018-07-05T08:48:09.165Z,97015.83
2018-07-05T08:49:14.740Z,97017.38
2018-07-05T08:50:20.637Z,97018.78
2018-07-05T08:51:24.954Z,97018.52
2018-07-05T08:52:29.473Z,97013.34
2018-07-05T08:53:33.641Z,97013.45
2018-07-05T08:54:38.553Z,97008.92
2018-07-05T08:55:44.082Z,97011.97
2018-07-05T08:56:48.189Z,97009.89
2018-07-05T08:57:53.218Z,97010.55
2018-07-05T08:58:57.407Z,97011.45
2018-07-05T09:00:04.357Z,97007.76
2018-07-05T09:01:13.008Z,97011.33
2018-07-05T09:02:17.232Z,97009.97
2018-07-05T09:03:22.714Z,97010.94
2018-07-05T09:04:28.239Z,97011.27
2018-07-05T09:05:32.447Z,97009.41
2018-07-05T09:06:39.510Z,97009.33
2018-07-05T09:07:45.007Z,97012.98
2018-07-05T09:08:50.148Z,97005.33
2018-07-05T09:09:54.465Z,97008.53
2018-07-05T09:10:58.729Z,97006.59
2018-07-05T09:12:04.591Z,97007.19
2018-07-05T09:13:08.873Z,97002.27
2018-07-05T09:14:13.343Z,96998.89
2018-07-05T09:15:20.594Z,97001.84
2018-07-05T09:16:25.832Z,96994.80
2018-07-05T09:17:31.272Z,96998.11
2018-07-05T09:18:35.851Z,96995.39
2018-07-05T09:19:40.149Z,96996.34
2018-07-05T09:20:44.768Z,96996.15
2018-07-05T09:21:49.982Z,96992.86
2018-07-05T09:22:54.756Z,96985.41
2018-07-05T09:24:01.028Z,96981.17
2018-07-05T09:25:09.790Z,96980.38
2018-07-05T09:26:17.248Z,96981.84
2018-07-05T09:27:22.231Z,96980.86
2018-07-05T09:28:28.780Z,96982.25
2018-07-05T09:29:33.958Z,96980.59
2018-07-05T09:30:38.806Z,96980.48
2018-07-05T09:31:44.378Z,96983.96
2018-07-05T09:32:48.715Z,96976.63
2018-07-05T09:33:53.061Z,96980.58
2018-07-05T09:34:57.219Z,96980.84
2018-07-05T09:36:01.455Z,96977.02
2018-07-05T09:37:05.716Z,96976.11
2018-07-05T09:38:12.025Z,96982.14
2018-07-05T09:39:19.948Z,96986.89
2018-07-05T09:40:28.768Z,96976.83
2018-07-05T09:41:33.036Z,96980.17
2018-07-05T09:42:37.398Z,96978.59
2018-07-05T09:43:41.502Z,96979.91
2018-07-05T09:44:47.766Z,96983.42
2018-07-05T09:45:52.050Z,96978.02
2018-07-05T09:46:56.265Z,96970.66
2018-07-05T09:48:00.917Z,96974.75
2018-07-05T09:49:05.209Z,96977.67
2018-07-05T09:50:10.243Z,96968.70
2018-07-05T09:51:17.910Z,96974.17
2018-07-05T09:52:23.502Z,96974.31
2018-07-05T09:53:29.136Z,96976.63
2018-07-05T09:54:34.881Z,96979.53
2018-07-05T09:55:40.506Z,96976.88
2018-07-05T09:56:46.038Z,96977.77
2018-07-05T09:57:50.378Z,96972.00
2018-07-05T09:58:55.346Z,96976.70
2018-07-05T09:59:59.486Z,96974.70
2018-07-05T10:01:04.272Z,96976.45
2018-07-05T10:02:10.364Z,96972.71
2018-07-05T10:03:14.868Z,96970.59
2018-07-05T10:04:21.014Z,96969.27
2018-07-05T10:05:27.131Z,96966.59
2018-07-05T10:06:32.668Z,96972.94
2018-07-05T10:07:38.146Z,96973.61
2018-07-05T10:08:42.398Z,96974.06
2018-07-05T10:09:47.859Z,96967.95
2018-07-05T10:10:52.684Z,96971.53
2018-07-05T10:11:56.908Z,96964.83
2018-07-05T10:13:02.432Z,96967.77
2018-07-05T10:14:06.566Z,96972.81
2018-07-05T10:15:10.624Z,96968.34
2018-07-05T10:16:16.601Z,96967.49
2018-07-05T10:17:22.450Z,96970.02
2018-07-05T10:18:26.568Z,96967.59
2018-07-05T10:19:30.782Z,96960.26
2018-07-05T10:20:38.428Z,96959.73
2018-07-05T10:21:42.748Z,96959.48
2018-07-05T10:22:51.524Z,96959.33
2018-07-05T10:23:56.746Z,96955.77
2018-07-05T10:25:02.716Z,96958.72
2018-07-05T10:26:07.170Z,96958.17
2018-07-05T10:27:11.794Z,96951.73
2018-07-05T10:28:16.977Z,96949.73
2018-07-05T10:29:33.682Z,96949.34
2018-07-05T10:30:51.308Z,96952.22
2018-07-05T10:32:07.823Z,96955.45
2018-07-05T10:33:29.522Z,96958.72
2018-07-05T10:34:34.326Z,96953.02
2018-07-05T10:35:40.865Z,96954.25
2018-07-05T10:36:45.016Z,96959.14
2018-07-05T10:37:49.193Z,96953.05
2018-07-05T10:38:53.712Z,96950.69
2018-07-05T10:40:11.270Z,96952.11
2018-07-05T10:41:30.566Z,96952.69
2018-07-05T10:42:50.950Z,96954.06
2018-07-05T10:44:09.090Z,96954.11
2018-07-05T10:45:26.604Z,96957.09
2018-07-05T10:46:43.276Z,96946.99
2018-07-05T10:48:01.117Z,96950.07
2018-07-05T10:49:17.672Z,96951.30
2018-07-05T10:52:07.924Z,96947.90
2018-07-05T10:53:24.788Z,96952.03
2018-07-05T10:54:41.581Z,96944.67
2018-07-05T10:55:58.272Z,96940.13
2018-07-05T10:57:15.476Z,96950.73
2018-07-05T10:58:32.103Z,96940.89
2018-07-05T10:59:50.839Z,96946.20
2018-07-05T11:01:07.481Z,96940.81
2018-07-05T11:02:24.122Z,96945.13
2018-07-05T11:03:41.734Z,96946.03
2018-07-05T11:04:59.863Z,96939.81
2018-07-05T11:06:19.438Z,96939.19
2018-07-05T11:07:36.203Z,96937.63
2018-07-05T11:08:53.065Z,96939.19
2018-07-05T11:10:09.576Z,96931.89
2018-07-05T11:11:26.240Z,96938.41
2018-07-05T11:12:44.462Z,96936.20
2018-07-05T11:14:01.006Z,96939.05
2018-07-05T11:15:18.455Z,96934.50
2018-07-05T11:16:37.971Z,96931.00
2018-07-05T11:17:55.526Z,96936.44
2018-07-05T11:19:12.090Z,96936.95
2018-07-05T11:20:29.834Z,96936.67
2018-07-05T11:21:48.515Z,96936.59
2018-07-05T11:23:06.508Z,96932.98
2018-07-05T11:24:23.063Z,96933.59
2018-07-05T11:25:41.841Z,96938.81
2018-07-05T11:27:02.028Z,96928.64
2018-07-05T11:28:21.962Z,96928.04
2018-07-05T11:29:41.809Z,96925.97
2018-07-05T11:31:00.625Z,96927.27
2018-07-05T11:32:17.540Z,96924.14
2018-07-05T11:33:34.276Z,96921.97
2018-07-05T11:34:52.584Z,96926.25
2018-07-05T11:36:10.430Z,96928.42
2018-07-05T11:37:30.056Z,96928.59
2018-07-05T11:38:49.194Z,96918.25
2018-07-05T11:40:07.797Z,96919.11
2018-07-05T11:41:26.775Z,96918.53
2018-07-05T11:42:44.641Z,96916.68
2018-07-05T11:44:02.664Z,96913.13
2018-07-05T11:45:21.905Z,96915.23
2018-07-05T11:46:39.121Z,96914.59
2018-07-05T11:47:56.172Z,96908.45
2018-07-05T11:49:12.927Z,96905.48
2018-07-05T11:50:29.687Z,96907.81
2018-07-05T11:51:46.389Z,96903.69
2018-07-05T11:53:04.546Z,96906.20
2018-07-05T11:54:21.470Z,96906.66
2018-07-05T11:55:38.138Z,96899.79
2018-07-05T11:56:56.695Z,96909.91
2018-07-05T11:58:14.190Z,96902.81
2018-07-05T11:59:30.774Z,96903.84
2018-07-05T12:00:48.506Z,96904.97
2018-07-05T12:02:05.107Z,96905.33
2018-07-05T12:03:21.751Z,96900.48
2018-07-05T12:04:39.280Z,96902.14
2018-07-05T12:05:57.652Z,96892.92
2018-07-05T12:07:15.686Z,96900.38
2018-07-05T12:08:33.987Z,96899.34
2018-07-05T12:09:51.278Z,96892.55
2018-07-05T12:11:07.794Z,96895.23
2018-07-05T12:12:25.293Z,96886.48
2018-07-05T12:13:43.141Z,96885.60
2018-07-05T12:15:00.824Z,96885.39
2018-07-05T12:16:17.371Z,96877.22
2018-07-05T12:17:34.036Z,96880.84
2018-07-05T12:18:51.236Z,96877.49
2018-07-05T12:20:09.060Z,96879.51
2018-07-05T12:21:27.408Z,96881.10
2018-07-05T12:22:45.004Z,96881.97
2018-07-05T12:24:01.768Z,96879.86
2018-07-05T12:25:20.750Z,96879.64
2018-07-05T12:26:38.037Z,96874.17
2018-07-05T12:27:54.698Z,96872.31
2018-07-05T12:29:12.808Z,96878.31
2018-07-05T12:30:29.429Z,96870.06
2018-07-05T12:31:46.817Z,96870.27
2018-07-05T12:33:05.306Z,96863.33
2018-07-05T12:34:22.030Z,96861.29
2018-07-05T12:35:51.433Z,96867.36
2018-07-05T12:37:29.670Z,96858.98
2018-07-05T12:39:04.984Z,96859.74
2018-07-05T12:40:38.426Z,96864.27
2018-07-05T12:42:10.856Z,96861.05
2018-07-05T12:43:32.125Z,96851.66
2018-07-05T12:44:48.806Z,96854.53
2018-07-05T12:46:05.622Z,96853.60
2018-07-05T12:47:22.291Z,96850.92
2018-07-05T12:48:39.859Z,96853.29
2018-07-05T12:49:58.035Z,96852.01
2018-07-05T12:51:15.793Z,96841.23
2018-07-05T12:52:33.763Z,96837.89
2018-07-05T12:53:50.883Z,96842.55
2018-07-05T12:55:08.368Z,96830.92
2018-07-05T12:56:25.823Z,96841.27
2018-07-05T12:57:42.268Z,96837.72
2018-07-05T12:59:01.221Z,96841.27
2018-07-05T13:00:17.996Z,96838.71
2018-07-05T13:01:34.608Z,96829.23
2018-07-05T13:02:54.441Z,96840.36
2018-07-05T13:04:12.811Z,96835.42
2018-07-05T13:05:31.078Z,96831.88
2018-07-05T13:06:49.518Z,96827.67
2018-07-05T13:08:07.364Z,96827.38
2018-07-05T13:09:29.498Z,96827.31
2018-07-05T13:10:46.573Z,96823.87
2018-07-05T13:12:03.202Z,96827.25
2018-07-05T13:13:19.974Z,96834.25
2018-07-05T13:14:38.172Z,96832.56
2018-07-05T13:15:55.471Z,96827.64
2018-07-05T13:17:13.809Z,96824.79
2018-07-05T13:18:30.463Z,96824.69
2018-07-05T13:19:47.151Z,96822.00
2018-07-05T13:21:03.841Z,96808.41
2018-07-05T13:22:23.219Z,96823.09
2018-07-05T13:23:39.976Z,96819.80
2018-07-05T13:24:56.669Z,96814.41
2018-07-05T13:26:13.535Z,96819.42
2018-07-05T13:27:30.262Z,96808.72
2018-07-05T13:28:46.689Z,96816.55
2018-07-05T13:30:04.291Z,96816.39
2018-07-05T13:31:20.986Z,96815.02
2018-07-05T13:32:40.252Z,96809.62
2018-07-05T13:34:00.548Z,96812.72
2018-07-05T13:35:20.116Z,96819.52
2018-07-05T13:36:39.704Z,96822.72
2018-07-05T13:37:56.404Z,96813.29
2018-07-05T13:39:13.981Z,96814.09
2018-07-05T13:40:30.746Z,96802.75
2018-07-05T13:41:48.578Z,96801.16
2018-07-05T13:43:07.974Z,96799.71
2018-07-05T13:44:26.570Z,96805.14
2018-07-05T13:45:43.401Z,96803.83
2018-07-05T13:47:01.949Z,96800.37
2018-07-05T13:48:18.984Z,96804.43
2018-07-05T13:49:35.912Z,96804.23
2018-07-05T13:50:52.961Z,96799.52
2018-07-05T13:52:12.642Z,96805.89
2018-07-05T13:53:30.355Z,96805.25
2018-07-05T13:54:47.045Z,96798.70
2018-07-05T13:56:04.360Z,96800.07
2018-07-05T13:57:24.592Z,96793.84
2018-07-05T13:58:44.213Z,96786.18
2018-07-05T14:00:01.328Z,96792.41
2018-07-05T14:01:18.048Z,96793.78
2018-07-05T14:02:37.666Z,96789.94
2018-07-05T14:03:56.968Z,96790.31
2018-07-05T14:05:14.951Z,96789.03
2018-07-05T14:06:32.836Z,96781.95
2018-07-05T14:07:49.616Z,96785.11
2018-07-05T14:09:06.986Z,96786.28
2018-07-05T14:10:23.977Z,96788.58
2018-07-05T14:11:42.729Z,96788.01
2018-07-05T14:12:59.329Z,96770.96
2018-07-05T14:14:16.112Z,96781.95
2018-07-05T14:15:36.426Z,96787.21
2018-07-05T14:16:55.157Z,96781.30
2018-07-05T14:18:15.308Z,96778.63
2018-07-05T14:19:33.527Z,96772.11
2018-07-05T14:20:50.232Z,96771.17
2018-07-05T14:22:08.261Z,96769.73
2018-07-05T14:23:25.093Z,96768.86
2018-07-05T14:24:42.000Z,96762.50
2018-07-05T14:26:00.778Z,96763.95
2018-07-05T14:27:17.351Z,96769.71
2018-07-05T14:28:35.030Z,96766.77
2018-07-05T14:29:56.705Z,96766.97
2018-07-05T14:31:14.548Z,96765.59
2018-07-05T14:32:33.983Z,96755.58
2018-07-05T14:33:50.561Z,96756.30
2018-07-05T14:35:07.246Z,96751.53
2018-07-05T14:36:25.245Z,96751.81
2018-07-05T14:37:41.765Z,96755.66
2018-07-05T14:38:58.499Z,96756.38
2018-07-05T14:40:15.273Z,96762.44
2018-07-05T14:41:32.020Z,96763.95
2018-07-05T14:42:48.585Z,96763.38
2018-07-05T14:44:10.040Z,96761.48
2018-07-05T14:45:26.871Z,96765.25
2018-07-05T14:46:43.541Z,96757.83
2018-07-05T14:48:00.461Z,96759.77
2018-07-05T14:49:17.215Z,96759.54
2018-07-05T14:50:34.337Z,96756.23
2018-07-05T14:51:50.869Z,96760.56
2018-07-05T14:53:07.642Z,96756.23
2018-07-05T14:54:24.346Z,96756.15
2018-07-05T14:55:42.219Z,96761.86
2018-07-05T14:56:58.636Z,96756.95
2018-07-05T14:58:16.715Z,96749.22
2018-07-05T14:59:35.278Z,96758.59
2018-07-05T15:00:53.554Z,96754.43
2018-07-05T15:02:15.413Z,96749.98
2018-07-05T15:03:32.141Z,96750.93
2018-07-05T15:04:48.860Z,96751.12
2018-07-05T15:06:05.461Z,96754.67
2018-07-05T15:07:23.238Z,96747.81
2018-07-05T15:08:40.298Z,96752.98
2018-07-05T15:09:58.344Z,96747.50
2018-07-05T15:11:14.972Z,96753.22
2018-07-05T15:12:34.153Z,96749.03
2018-07-05T15:13:51.713Z,96746.66
2018-07-05T15:15:08.521Z,96742.09
2018-07-05T15:16:26.124Z,96743.91
2018-07-05T15:17:44.033Z,96740.60
2018-07-05T15:19:02.267Z,96737.06
2018-07-05T15:20:19.420Z,96745.48
2018-07-05T15:21:36.180Z,96744.91
2018-07-05T15:22:52.893Z,96743.34
2018-07-05T15:24:09.685Z,96744.34
2018-07-05T15:25:27.433Z,96736.53
2018-07-05T15:26:44.163Z,96737.70
2018-07-05T15:28:01.417Z,96740.88
2018-07-05T15:29:18.216Z,96739.50
2018-07-05T15:30:35.182Z,96737.78
2018-07-05T15:31:52.786Z,96738.59
2018-07-05T15:33:15.632Z,96729.75
2018-07-05T15:34:33.363Z,96732.42
2018-07-05T15:35:50.545Z,96718.14
2018-07-05T15:37:07.553Z,96724.20
2018-07-05T15:38:27.267Z,96718.71
2018-07-05T15:39:44.081Z,96713.23
2018-07-05T15:41:01.173Z,96724.42
2018-07-05T15:42:17.859Z,96723.05
2018-07-05T15:43:34.725Z,96720.39
2018-07-05T15:44:55.365Z,96721.86
2018-07-05T15:46:15.375Z,96713.48
2018-07-05T15:47:32.146Z,96718.39
2018-07-05T15:48:48.729Z,96718.63
2018-07-05T15:50:05.489Z,96717.67
2018-07-05T15:51:26.266Z,96715.58
2018-07-05T15:52:43.005Z,96716.80
2018-07-05T15:54:00.559Z,96721.94
2018-07-05T15:55:19.252Z,96712.56
2018-07-05T15:56:39.405Z,96714.66
2018-07-05T15:57:56.267Z,96717.59
2018-07-05T15:59:13.141Z,96714.43
2018-07-05T16:00:31.350Z,96718.31
2018-07-05T16:01:49.910Z,96716.75
2018-07-05T16:03:06.836Z,96711.04
2018-07-05T16:04:24.835Z,96714.51
2018-07-05T16:05:41.629Z,96713.86
2018-07-05T16:07:02.362Z,96709.52
2018-07-05T16:08:25.920Z,96707.20
2018-07-05T16:09:42.753Z,96708.37
2018-07-05T16:11:01.971Z,96710.31
2018-07-05T16:12:18.639Z,96698.09
2018-07-05T16:13:40.049Z,96696.66
2018-07-05T16:14:57.452Z,96691.66
2018-07-05T16:16:14.017Z,96700.96
2018-07-05T16:17:31.977Z,96694.25
2018-07-05T16:18:48.914Z,96702.48
2018-07-05T16:20:05.634Z,96694.98
2018-07-05T16:21:24.287Z,96701.41
2018-07-05T16:22:40.829Z,96689.80
2018-07-05T16:23:57.339Z,96690.48
2018-07-05T16:25:15.323Z,96688.12
2018-07-05T16:26:31.857Z,96687.31
2018-07-05T16:27:48.424Z,96686.75
2018-07-05T16:29:05.031Z,96684.16
2018-07-05T16:30:22.461Z,96684.95
2018-07-05T16:31:40.707Z,96687.74
2018-07-05T16:33:00.145Z,96682.63
2018-07-05T16:34:16.981Z,96691.01
2018-07-05T16:35:33.683Z,96700.37
2018-07-05T16:36:50.401Z,96699.58
2018-07-05T16:38:07.131Z,96697.63
2018-07-05T16:39:24.671Z,96702.89
2018-07-05T16:40:42.320Z,96706.00
2018-07-05T16:42:01.587Z,96704.63
2018-07-05T16:43:18.628Z,96712.06
2018-07-05T16:44:36.279Z,96710.91
2018-07-05T16:45:53.157Z,96710.12
2018-07-05T16:47:09.733Z,96698.58
2018-07-05T16:48:26.251Z,96707.38
2018-07-05T16:49:48.417Z,96701.66
2018-07-05T16:51:07.752Z,96705.12
2018-07-05T16:52:24.327Z,96708.59
2018-07-05T16:53:42.047Z,96709.30
2018-07-05T16:54:59.309Z,96708.42
2018-07-05T16:56:17.007Z,96708.56
2018-07-05T16:57:35.058Z,96704.46
2018-07-05T16:58:53.398Z,96710.40
2018-07-05T17:00:10.327Z,96712.91
2018-07-05T17:01:27.325Z,96709.03
2018-07-05T17:02:44.051Z,96705.48
2018-07-05T17:04:00.745Z,96709.03
2018-07-05T17:05:19.346Z,96701.18
2018-07-05T17:06:40.188Z,96707.34
2018-07-05T17:08:00.050Z,96705.92
2018-07-05T17:09:17.993Z,96704.18
2018-07-05T17:10:34.475Z,96706.50
2018-07-05T17:11:51.090Z,96708.78
2018-07-05T17:13:07.724Z,96705.61
2018-07-05T17:14:25.782Z,96701.98
2018-07-05T17:15:43.160Z,96698.59
2018-07-05T17:16:59.918Z,96695.91
2018-07-05T17:18:17.409Z,96711.27
2018-07-05T17:19:34.687Z,96713.91
2018-07-05T17:20:51.704Z,96703.44
2018-07-05T17:22:08.463Z,96711.56
2018-07-05T17:23:27.090Z,96711.14
2018-07-05T17:24:43.643Z,96708.52
2018-07-05T17:26:00.237Z,96716.16
2018-07-05T17:27:16.691Z,96716.64
2018-07-05T17:28:35.371Z,96713.58
2018-07-05T17:29:57.244Z,96711.55
2018-07-05T17:31:16.377Z,96722.61
2018-07-05T17:32:33.085Z,96724.91
2018-07-05T17:33:49.834Z,96724.48
2018-07-05T17:35:06.603Z,96726.42
2018-07-05T17:36:24.508Z,96720.15
2018-07-05T17:37:41.040Z,96716.18
2018-07-05T17:39:00.281Z,96722.80
2018-07-05T17:40:21.013Z,96728.84
2018-07-05T17:41:41.622Z,96733.17
2018-07-05T17:42:58.031Z,96728.50
2018-07-05T17:44:14.833Z,96726.33
2018-07-05T17:45:31.487Z,96725.19
2018-07-05T17:46:48.222Z,96725.19
2018-07-05T17:48:06.128Z,96726.19
2018-07-05T17:49:24.034Z,96726.65
2018-07-05T17:50:41.611Z,96725.28
2018-07-05T17:52:00.232Z,96722.75
2018-07-05T17:53:17.245Z,96718.07
2018-07-05T17:54:34.103Z,96726.05
2018-07-05T17:55:52.184Z,96727.65
2018-07-05T17:57:11.687Z,96727.42
2018-07-05T17:58:32.974Z,96732.89
2018-07-05T17:59:49.713Z,96731.42
2018-07-05T18:01:08.096Z,96728.17
2018-07-05T18:02:24.777Z,96727.39
2018-07-05T18:03:43.387Z,96726.88
2018-07-05T18:05:01.902Z,96720.83
2018-07-05T18:06:19.047Z,96718.23
2018-07-05T18:07:37.123Z,96719.60
2018-07-05T18:08:54.750Z,96731.13
2018-07-05T18:10:14.051Z,96728.95
2018-07-05T18:11:32.853Z,96724.39
2018-07-05T18:12:52.741Z,96718.48
2018-07-05T18:14:09.441Z,96721.93
2018-07-05T18:15:26.541Z,96718.50
2018-07-05T18:16:44.157Z,96713.73
2018-07-05T18:18:03.275Z,96718.78
2018-07-05T18:19:21.985Z,96719.92
2018-07-05T18:20:41.343Z,96719.96
2018-07-05T18:22:00.633Z,96721.23
2018-07-05T18:23:20.374Z,96726.61
2018-07-05T18:24:37.595Z,96710.51
2018-07-05T18:25:55.039Z,96718.72
2018-07-05T18:27:13.245Z,96720.79
2018-07-05T18:28:30.018Z,96723.20
2018-07-05T18:29:49.460Z,96726.30
2018-07-05T18:31:06.253Z,96721.30
2018-07-05T18:32:24.481Z,96723.10
2018-07-05T18:33:43.805Z,96725.04
2018-07-05T18:35:00.749Z,96722.00
2018-07-05T18:36:17.512Z,96713.33
2018-07-05T18:37:34.375Z,96721.44
2018-07-05T18:38:51.727Z,96727.84
2018-07-05T18:40:09.063Z,96723.87
2018-07-05T18:41:27.025Z,96724.77
2018-07-05T18:42:44.080Z,96725.23
2018-07-05T18:44:01.073Z,96725.94
2018-07-05T18:45:17.694Z,96725.94
2018-07-05T18:46:34.253Z,96725.50
2018-07-05T18:47:52.491Z,96730.30
2018-07-05T18:49:09.241Z,96724.39
2018-07-05T18:50:26.541Z,96722.56
2018-07-05T18:51:43.337Z,96724.39
2018-07-05T18:53:00.068Z,96721.22
2018-07-05T18:54:16.995Z,96728.19
2018-07-05T18:55:33.826Z,96726.95
2018-07-05T18:56:53.926Z,96730.58
2018-07-05T18:58:12.342Z,96731.51
2018-07-05T18:59:28.925Z,96739.23
2018-07-05T19:00:45.901Z,96738.80
2018-07-05T19:02:05.231Z,96741.06
2018-07-05T19:03:21.887Z,96746.42
2018-07-05T19:04:38.719Z,96747.45
2018-07-05T19:05:56.223Z,96752.91
2018-07-05T19:07:13.051Z,96751.31
2018-07-05T19:08:29.797Z,96746.33
2018-07-05T19:09:46.609Z,96752.69
2018-07-05T19:11:04.333Z,96752.25
2018-07-05T19:12:21.193Z,96754.52
2018-07-05T19:13:38.622Z,96753.74
2018-07-05T19:14:55.615Z,96760.22
2018-07-05T19:16:12.388Z,96759.53
2018-07-05T19:17:31.491Z,96766.04
2018-07-05T19:18:48.880Z,96761.83
2018-07-05T19:20:14.932Z,96765.92
2018-07-05T19:21:31.916Z,96765.45
2018-07-05T19:22:50.805Z,96767.18
2018-07-05T19:24:07.524Z,96771.84
2018-07-05T19:25:26.276Z,96768.87
2018-07-05T19:26:44.055Z,96776.06
2018-07-05T19:28:01.047Z,96771.85
2018-07-05T19:29:18.533Z,96773.91
2018-07-05T19:30:37.749Z,96776.64
2018-07-05T19:31:54.528Z,96781.19